Nearby METAR Reports

 

EGVN - Brize Norton Raf, United Kingdom
Distance from station: SSE 20mi, 32km
Updated: 18/02/2018 18:50
Mostly cloudy
Mostly cloudy
 Wind from SSW
Wind: SSW 2 mph , 4 km/h
Temperature: 8°C
Dew Point: 5°C
Humidity: 82%
Barometer: 1020 hPa
Clouds: Mostly cloudy
Visibility: 6 miles , 10 km
Cloud details: Partly cloudy 701 m
Mostly cloudy 1097 m
2018/02/18 18:50 EGVN 181850Z 20002KT 9999 SCT023 BKN036 08/05 Q1020 WHT BECMG BKN010 GRN
EGTK - Oxford, United Kingdom
Distance from station: SE 22mi, 35km
Updated: 18/02/2018 19:20
Mostly cloudy
Mostly cloudy
 Wind from S
Wind: S 6 mph , 9 km/h
Temperature: 7°C
Wind Chill: 6°C
Dew Point: 5°C
Humidity: 87%
Barometer: 1020 hPa
Clouds: Mostly cloudy
Visibility: 6 miles , 10 km
Cloud details: Partly cloudy 579 m
Mostly cloudy 762 m
2018/02/18 19:20 EGTK 181920Z 19005KT 9999 SCT019 BKN025 07/05 Q1020
 
EGBJ - Staverton (priva, United Kingdom
Distance from station: WSW 23mi, 36km
Updated: 18/02/2018 17:50
NOT Current
Mostly cloudy
Mostly cloudy
 Wind from SSW
Wind: SSW 6 mph , 9 km/h
Temperature: 8°C
Wind Chill: 6°C
Dew Point: 6°C
Humidity: 87%
Barometer: 1019 hPa
Clouds: Mostly cloudy
Visibility: 6 miles , 10 km
Cloud details: Few Clouds 305 m
Mostly cloudy 396 m
2018/02/18 17:50 EGBJ 181750Z 21005KT 9999 FEW010 BKN013 08/06 Q1019
EGVA - Fairford Raf, United Kingdom
Distance from station: S 27mi, 43km
Updated: 18/02/2018 19:17

 Wind from S
Wind: S 6 mph , 9 km/h
Temperature: 7°C
Wind Chill: 6°C
Dew Point: 5°C
Humidity: 87%
Barometer: 1019.6 hPa
2018/02/18 19:17 EGVA 181917Z AUTO 19005KT M M M 07/05 A3011 RMK AO2 SLP203 RVRNO $
 
EGBB - Birmingham Airpo, United Kingdom
Distance from station: N 29mi, 46km
Updated: 18/02/2018 19:20
Mostly cloudy
Mostly cloudy
 Wind from S
Wind: S 6 mph , 9 km/h
Temperature: 7°C
Wind Chill: 6°C
Dew Point: 6°C
Humidity: 93%
Barometer: 1019 hPa
Clouds: Mostly cloudy
Visibility: 6 miles , 10 km
Cloud details: Mostly cloudy 427 m
2018/02/18 19:20 EGBB 181920Z 19005KT 9999 BKN014 07/06 Q1019
EGUB - Benson Raf, United Kingdom
Distance from station: SE 40mi, 65km
Updated: 18/02/2018 18:50
Overcast
Overcast
 Wind from S
Wind: S 6 mph , 9 km/h
Temperature: 6°C
Wind Chill: 4°C
Dew Point: 5°C
Humidity: 93%
Barometer: 1020 hPa
Clouds: Overcast
Visibility: 6 miles , 10 km
Cloud details: Overcast 1280 m
2018/02/18 18:50 EGUB 181850Z AUTO 17005KT 9999 // OVC042/// 06/05 Q1020
 
EGTC - Cranfield, United Kingdom
Distance from station: E 46mi, 74km
Updated: 18/02/2018 17:20
NOT Current
Mostly cloudy
Mostly cloudy
 Wind from S
Wind: S 7 mph , 11 km/h
Temperature: 8°C
Wind Chill: 6°C
Dew Point: 5°C
Humidity: 82%
Barometer: 1019 hPa
Clouds: Mostly cloudy
Visibility: 6 miles , 10 km
Cloud details: Mostly cloudy 884 m
2018/02/18 17:20 EGTC 181720Z 18006KT 9999 BKN029 08/05 Q1019
EGWC - Cosford Raf, United Kingdom
Distance from station: NNW 46mi, 75km
Updated: 18/02/2018 14:50
NOT Current
Mostly cloudy
Mostly cloudy
 Wind from S
Wind: S 7 mph , 11 km/h
Temperature: 8°C
Wind Chill: 6°C
Dew Point: 6°C
Humidity: 87%
Barometer: 1019 hPa
Clouds: Mostly cloudy
Visibility: 6 miles , 10 km
Cloud details: Mostly cloudy 305 m
2018/02/18 14:50 EGWC 181450Z 19006KT 9999 BKN010 08/06 Q1019 GRN